createdAt,value
2023-05-20T00:00:50.513Z,2.60
2023-05-20T00:03:17.716Z,2.90
2023-05-20T00:05:46.157Z,2.80
2023-05-20T00:08:13.081Z,3.07
2023-05-20T00:10:40.002Z,2.57
2023-05-20T00:13:08.865Z,5.30
2023-05-20T00:15:36.847Z,2.73
2023-05-20T00:18:04.218Z,2.60
2023-05-20T00:20:31.666Z,2.70
2023-05-20T00:23:00.846Z,2.93
2023-05-20T00:25:27.707Z,2.60
2023-05-20T00:27:55.657Z,2.23
2023-05-20T00:30:22.527Z,2.67
2023-05-20T00:32:49.606Z,3.07
2023-05-20T00:35:17.795Z,3.10
2023-05-20T00:37:46.178Z,2.63
2023-05-20T00:40:15.394Z,2.60
2023-05-20T00:42:42.530Z,2.77
2023-05-20T00:45:12.958Z,3.47
2023-05-20T00:47:41.545Z,3.60
2023-05-20T00:50:10.578Z,3.10
2023-05-20T00:52:42.048Z,2.90
2023-05-20T00:55:09.255Z,2.70
2023-05-20T00:57:36.539Z,3.03
2023-05-20T01:00:05.786Z,2.63
2023-05-20T01:02:34.109Z,3.10
2023-05-20T01:05:01.965Z,2.90
2023-05-20T01:07:28.839Z,2.43
2023-05-20T01:09:59.571Z,2.57
2023-05-20T01:12:30.941Z,3.40
2023-05-20T01:15:10.899Z,2.90
2023-05-20T01:17:48.185Z,3.47
2023-05-20T01:20:21.822Z,2.97
2023-05-20T01:22:57.074Z,4.70
2023-05-20T01:25:25.248Z,3.10
2023-05-20T01:27:54.469Z,2.60
2023-05-20T01:30:21.594Z,3.40
2023-05-20T01:32:50.799Z,3.50
2023-05-20T01:35:18.142Z,3.60
2023-05-20T01:37:45.733Z,3.50
2023-05-20T01:40:14.124Z,3.50
2023-05-20T01:42:42.465Z,3.47
2023-05-20T01:45:09.811Z,3.30
2023-05-20T01:47:36.668Z,2.63
2023-05-20T01:50:03.701Z,3.17
2023-05-20T01:52:31.972Z,3.00
2023-05-20T01:55:00.112Z,3.60
2023-05-20T01:57:28.525Z,3.33
2023-05-20T01:59:55.572Z,3.47
2023-05-20T02:02:22.502Z,2.70
2023-05-20T02:04:51.756Z,3.40
2023-05-20T02:07:19.137Z,3.13
2023-05-20T02:09:46.805Z,2.90
2023-05-20T02:12:18.273Z,2.90
2023-05-20T02:14:46.193Z,3.23
2023-05-20T02:17:17.293Z,3.07
2023-05-20T02:19:46.049Z,2.80
2023-05-20T02:22:13.393Z,3.10
2023-05-20T02:24:43.296Z,3.13
2023-05-20T02:27:10.962Z,2.77
2023-05-20T02:29:37.804Z,5.57
2023-05-20T02:32:05.062Z,3.43
2023-05-20T02:34:33.738Z,4.03
2023-05-20T02:37:02.174Z,2.87
2023-05-20T02:39:29.087Z,3.10
2023-05-20T02:41:56.448Z,4.30
2023-05-20T02:44:23.409Z,2.80
2023-05-20T02:46:51.513Z,3.07
2023-05-20T02:49:18.447Z,2.77
2023-05-20T02:51:45.426Z,2.73
2023-05-20T02:54:12.866Z,4.73
2023-05-20T02:56:39.872Z,2.83
2023-05-20T02:59:08.418Z,2.80
2023-05-20T03:01:36.094Z,3.27
2023-05-20T03:04:03.706Z,2.70
2023-05-20T03:06:32.153Z,2.83
2023-05-20T03:09:00.128Z,3.50
2023-05-20T03:11:27.133Z,2.47
2023-05-20T03:13:54.053Z,3.00
2023-05-20T03:16:21.098Z,2.63
2023-05-20T03:18:48.437Z,3.10
2023-05-20T03:21:16.370Z,2.33
2023-05-20T03:23:43.271Z,2.50
2023-05-20T03:26:10.189Z,2.70
2023-05-20T03:28:38.849Z,5.30
2023-05-20T03:31:07.049Z,3.00
2023-05-20T03:33:35.029Z,2.77
2023-05-20T03:36:01.904Z,3.10
2023-05-20T03:38:30.620Z,2.73
2023-05-20T03:40:57.522Z,2.80
2023-05-20T03:43:26.333Z,2.90
2023-05-20T03:45:55.911Z,3.10
2023-05-20T03:48:22.828Z,2.80
2023-05-20T03:50:51.112Z,3.30
2023-05-20T03:53:20.848Z,3.20
2023-05-20T03:55:48.182Z,3.50
2023-05-20T03:58:15.639Z,2.70
2023-05-20T04:00:42.786Z,2.50
2023-05-20T04:03:10.542Z,2.60
2023-05-20T04:05:38.080Z,3.30
2023-05-20T04:08:06.521Z,2.80
2023-05-20T04:10:33.592Z,2.30
2023-05-20T04:13:00.711Z,4.93
2023-05-20T04:15:30.285Z,3.60
2023-05-20T04:17:59.096Z,3.30
2023-05-20T04:20:26.041Z,3.00
2023-05-20T04:22:54.286Z,2.97
2023-05-20T04:25:21.949Z,3.17
2023-05-20T04:27:50.873Z,3.57
2023-05-20T04:30:19.551Z,3.47
2023-05-20T04:32:48.344Z,3.20
2023-05-20T04:35:15.275Z,2.90
2023-05-20T04:37:44.627Z,3.53
2023-05-20T04:40:13.760Z,4.00
2023-05-20T04:42:40.642Z,3.07
2023-05-20T04:45:09.638Z,3.20
2023-05-20T04:47:39.326Z,3.93
2023-05-20T04:50:10.827Z,3.77
2023-05-20T04:52:39.207Z,3.67
2023-05-20T04:55:11.482Z,3.87
2023-05-20T04:57:45.499Z,3.40
2023-05-20T05:00:13.379Z,3.60
2023-05-20T05:02:40.707Z,3.30
2023-05-20T05:05:08.262Z,3.50
2023-05-20T05:07:35.369Z,12.13
2023-05-20T05:10:02.518Z,11.43
2023-05-20T05:12:32.949Z,8.67
2023-05-20T05:14:59.955Z,5.90
2023-05-20T05:17:26.965Z,4.40
2023-05-20T05:19:55.382Z,4.20
2023-05-20T05:22:22.195Z,5.00
2023-05-20T05:24:50.123Z,4.20
2023-05-20T05:27:17.199Z,3.77
2023-05-20T05:29:45.695Z,4.10
2023-05-20T05:32:12.980Z,3.60
2023-05-20T05:34:40.996Z,4.30
2023-05-20T05:37:07.870Z,3.90
2023-05-20T05:39:37.735Z,3.70
2023-05-20T05:42:05.511Z,3.30
2023-05-20T05:44:32.997Z,3.80
2023-05-20T05:47:00.214Z,4.73
2023-05-20T05:49:27.168Z,4.20
2023-05-20T05:51:55.993Z,4.57
2023-05-20T05:54:22.933Z,3.00
2023-05-20T05:56:52.881Z,3.70
2023-05-20T05:59:19.844Z,4.23
2023-05-20T06:01:46.749Z,3.73
2023-05-20T06:04:13.804Z,2.97
2023-05-20T06:06:41.401Z,3.50
2023-05-20T06:09:08.349Z,3.50
2023-05-20T06:11:36.195Z,3.30
2023-05-20T06:14:04.234Z,4.47
2023-05-20T06:16:35.531Z,4.27
2023-05-20T06:19:03.730Z,3.83
2023-05-20T06:21:32.669Z,3.33
2023-05-20T06:23:59.713Z,2.70
2023-05-20T06:26:26.715Z,3.60
2023-05-20T06:28:55.068Z,3.50
2023-05-20T06:31:21.982Z,3.63
2023-05-20T06:33:50.219Z,3.30
2023-05-20T06:36:17.571Z,3.40
2023-05-20T06:38:45.920Z,4.43
2023-05-20T06:41:13.266Z,4.07
2023-05-20T06:43:40.672Z,4.93
2023-05-20T06:46:07.576Z,6.07
2023-05-20T06:48:35.588Z,6.03
2023-05-20T06:51:05.918Z,5.30
2023-05-20T06:53:32.803Z,5.53
2023-05-20T06:56:01.096Z,5.67
2023-05-20T06:58:29.238Z,5.10
2023-05-20T07:00:56.153Z,4.57
2023-05-20T07:03:23.838Z,4.90
2023-05-20T07:05:54.464Z,5.80
2023-05-20T07:08:22.849Z,5.00
2023-05-20T07:10:49.779Z,6.33
2023-05-20T07:13:25.963Z,5.30
2023-05-20T07:15:52.932Z,6.30
2023-05-20T07:18:19.930Z,6.10
2023-05-20T07:20:46.951Z,6.13
2023-05-20T07:23:15.778Z,4.70
2023-05-20T07:25:42.799Z,4.60
2023-05-20T07:28:09.760Z,4.50
2023-05-20T07:30:36.705Z,4.13
2023-05-20T07:33:03.684Z,4.80
2023-05-20T07:35:30.912Z,3.90
2023-05-20T07:37:57.831Z,3.67
2023-05-20T07:40:24.787Z,3.53
2023-05-20T07:42:51.721Z,4.10
2023-05-20T07:45:20.182Z,3.07
2023-05-20T07:47:47.849Z,3.43
2023-05-20T07:50:15.804Z,3.73
2023-05-20T07:52:55.230Z,4.03
2023-05-20T07:55:23.836Z,3.90
2023-05-20T07:57:54.401Z,3.20
2023-05-20T08:00:21.475Z,4.00
2023-05-20T08:02:48.502Z,3.53
2023-05-20T08:05:15.713Z,4.00
2023-05-20T08:07:42.902Z,4.10
2023-05-20T08:10:10.197Z,3.97
2023-05-20T08:12:37.107Z,4.10
2023-05-20T08:15:04.623Z,4.30
2023-05-20T08:17:32.943Z,4.30
2023-05-20T08:20:00.045Z,3.60
2023-05-20T08:22:30.001Z,3.90
2023-05-20T08:24:58.168Z,5.70
2023-05-20T08:27:26.336Z,3.80
2023-05-20T08:29:53.301Z,3.50
2023-05-20T08:32:21.540Z,4.40
2023-05-20T08:34:49.382Z,4.23
2023-05-20T08:37:17.369Z,3.20
2023-05-20T08:39:46.651Z,3.80
2023-05-20T08:42:14.142Z,3.70
2023-05-20T08:44:41.647Z,4.03
2023-05-20T08:47:10.379Z,4.47
2023-05-20T08:49:38.839Z,4.03
2023-05-20T08:52:08.980Z,5.27
2023-05-20T08:54:54.322Z,5.00
2023-05-20T08:57:21.213Z,5.10
2023-05-20T08:59:48.420Z,4.53
2023-05-20T09:02:15.857Z,4.27
2023-05-20T09:04:43.350Z,4.43
2023-05-20T09:07:11.136Z,4.73
2023-05-20T09:09:39.608Z,4.77
2023-05-20T09:12:07.964Z,4.77
2023-05-20T09:14:36.213Z,4.73
2023-05-20T09:17:04.869Z,4.77
2023-05-20T09:19:32.635Z,4.20
2023-05-20T09:21:59.598Z,4.83
2023-05-20T09:24:27.182Z,4.33
2023-05-20T09:26:54.533Z,3.40
2023-05-20T09:29:21.995Z,3.33
2023-05-20T09:31:50.383Z,4.20
2023-05-20T09:34:18.815Z,3.80
2023-05-20T09:36:50.032Z,3.80
2023-05-20T09:39:20.132Z,4.40
2023-05-20T09:41:55.689Z,4.30
2023-05-20T09:44:24.518Z,4.90
2023-05-20T09:46:54.288Z,5.43
2023-05-20T09:49:23.736Z,4.70
2023-05-20T09:51:51.351Z,4.53
2023-05-20T09:54:20.729Z,4.50
2023-05-20T09:56:48.294Z,5.00
2023-05-20T09:59:18.481Z,5.87
2023-05-20T10:01:46.645Z,5.93
2023-05-20T10:04:14.062Z,5.47
2023-05-20T10:07:02.055Z,5.47
2023-05-20T10:09:59.380Z,4.63
2023-05-20T10:12:48.245Z,5.93
2023-05-20T10:15:26.635Z,4.97
2023-05-20T10:18:33.202Z,5.00
2023-05-20T10:21:00.184Z,5.10
2023-05-20T10:23:31.261Z,5.03
2023-05-20T10:25:58.940Z,4.93
2023-05-20T10:28:30.884Z,5.93
2023-05-20T10:30:59.355Z,6.40
2023-05-20T10:33:29.737Z,5.40
2023-05-20T10:36:01.259Z,4.93
2023-05-20T10:38:28.292Z,4.97
2023-05-20T10:40:57.877Z,4.50
2023-05-20T10:43:30.919Z,4.20
2023-05-20T10:46:00.284Z,4.60
2023-05-20T10:48:32.348Z,4.33
2023-05-20T10:51:07.294Z,4.43
2023-05-20T10:53:41.168Z,5.53
2023-05-20T10:56:18.756Z,4.50
2023-05-20T10:58:45.809Z,3.53
2023-05-20T11:01:17.025Z,4.10
2023-05-20T11:03:47.976Z,3.77
2023-05-20T11:06:17.579Z,4.10
2023-05-20T11:08:47.986Z,5.17
2023-05-20T11:11:15.433Z,4.60
2023-05-20T11:13:42.436Z,5.43
2023-05-20T11:16:09.398Z,3.90
2023-05-20T11:18:36.724Z,4.17
2023-05-20T11:21:03.737Z,4.33
2023-05-20T11:23:31.067Z,4.03
2023-05-20T11:25:58.166Z,4.27
2023-05-20T11:28:25.763Z,3.67
2023-05-20T11:30:53.875Z,3.13
2023-05-20T11:33:22.894Z,3.90
2023-05-20T11:35:52.071Z,3.63
2023-05-20T11:38:22.068Z,3.63
2023-05-20T11:40:54.535Z,3.70
2023-05-20T11:43:23.015Z,3.93
2023-05-20T11:45:58.613Z,3.90
2023-05-20T11:48:25.738Z,3.33
2023-05-20T11:50:54.059Z,3.23
2023-05-20T11:53:22.255Z,3.07
2023-05-20T11:55:51.367Z,3.80
2023-05-20T11:58:24.840Z,4.00
2023-05-20T12:00:57.090Z,4.00
2023-05-20T12:03:29.186Z,4.73
2023-05-20T12:05:56.649Z,4.20
2023-05-20T12:08:23.558Z,3.40
2023-05-20T12:10:50.748Z,3.93
2023-05-20T12:13:19.272Z,4.80
2023-05-20T12:15:46.256Z,4.23
2023-05-20T12:18:13.491Z,3.60
2023-05-20T12:20:41.167Z,4.80
2023-05-20T12:23:08.111Z,3.90
2023-05-20T12:25:37.333Z,3.80
2023-05-20T12:28:06.867Z,3.83
2023-05-20T12:30:35.231Z,4.50
2023-05-20T12:33:02.684Z,4.50
2023-05-20T12:35:39.251Z,5.00
2023-05-20T12:38:06.910Z,4.37
2023-05-20T12:40:35.686Z,4.40
2023-05-20T12:43:04.431Z,4.80
2023-05-20T12:45:31.348Z,4.23
2023-05-20T12:47:58.415Z,4.10
2023-05-20T12:50:27.188Z,3.80
2023-05-20T12:52:55.420Z,3.63
2023-05-20T12:55:22.803Z,4.57
2023-05-20T12:57:50.111Z,4.27
2023-05-20T13:00:18.048Z,4.17
2023-05-20T13:02:48.394Z,5.20
2023-05-20T13:05:15.592Z,4.00
2023-05-20T13:07:42.716Z,5.40
2023-05-20T13:10:11.398Z,4.50
2023-05-20T13:12:38.390Z,3.77
2023-05-20T13:15:05.993Z,3.33
2023-05-20T13:17:35.473Z,2.53
2023-05-20T13:20:02.631Z,3.00
2023-05-20T13:22:29.744Z,3.83
2023-05-20T13:24:56.838Z,3.27
2023-05-20T13:27:24.023Z,3.20
2023-05-20T13:29:50.915Z,3.10
2023-05-20T13:32:18.665Z,4.13
2023-05-20T13:34:45.782Z,3.67
2023-05-20T13:37:12.665Z,6.43
2023-05-20T13:39:40.289Z,5.50
2023-05-20T13:42:07.265Z,5.00
2023-05-20T13:44:35.093Z,4.60
2023-05-20T13:47:02.180Z,4.00
2023-05-20T13:49:29.076Z,4.20
2023-05-20T13:51:57.523Z,5.10
2023-05-20T13:54:25.168Z,7.33
2023-05-20T13:56:54.448Z,4.70
2023-05-20T13:59:21.626Z,4.90
2023-05-20T14:01:49.031Z,7.57
2023-05-20T14:04:16.280Z,4.87
2023-05-20T14:06:43.197Z,4.90
2023-05-20T14:09:11.278Z,5.83
2023-05-20T14:11:38.225Z,4.90
2023-05-20T14:14:05.305Z,4.00
2023-05-20T14:16:33.485Z,4.30
2023-05-20T14:19:01.053Z,3.50
2023-05-20T14:21:32.215Z,4.17
2023-05-20T14:24:01.422Z,3.73
2023-05-20T14:26:29.308Z,3.80
2023-05-20T14:28:56.917Z,3.10
2023-05-20T14:31:25.089Z,3.70
2023-05-20T14:33:52.031Z,4.10
2023-05-20T14:36:20.964Z,4.00
2023-05-20T14:38:49.610Z,15.60
2023-05-20T14:41:17.572Z,5.00
2023-05-20T14:43:44.902Z,4.57
2023-05-20T14:46:12.803Z,4.40
2023-05-20T14:48:40.803Z,3.40
2023-05-20T14:51:07.748Z,3.20
2023-05-20T14:53:35.904Z,4.17
2023-05-20T14:56:03.284Z,3.60
2023-05-20T14:58:31.082Z,4.00
2023-05-20T15:00:57.986Z,3.83
2023-05-20T15:03:28.535Z,3.70
2023-05-20T15:05:55.525Z,4.53
2023-05-20T15:08:23.861Z,3.67
2023-05-20T15:10:50.890Z,3.83
2023-05-20T15:13:19.236Z,3.53
2023-05-20T15:15:46.227Z,3.97
2023-05-20T15:18:13.411Z,4.30
2023-05-20T15:20:40.647Z,4.00
2023-05-20T15:23:07.667Z,4.80
2023-05-20T15:25:36.539Z,4.37
2023-05-20T15:28:03.750Z,5.03
2023-05-20T15:30:31.374Z,3.80
2023-05-20T15:32:58.876Z,3.10
2023-05-20T15:35:26.180Z,4.10
2023-05-20T15:37:54.854Z,3.90
2023-05-20T15:40:21.863Z,4.70
2023-05-20T15:42:50.567Z,3.80
2023-05-20T15:45:17.432Z,3.20
2023-05-20T15:47:45.696Z,3.43
2023-05-20T15:50:12.775Z,3.80
2023-05-20T15:52:39.849Z,4.13
2023-05-20T15:55:07.507Z,3.83
2023-05-20T15:57:34.397Z,4.43
2023-05-20T16:00:04.309Z,4.73
2023-05-20T16:02:36.633Z,3.50
2023-05-20T16:05:04.401Z,2.60
2023-05-20T16:07:31.774Z,2.93
2023-05-20T16:10:00.535Z,2.87
2023-05-20T16:12:27.500Z,3.50
2023-05-20T16:14:54.451Z,3.60
2023-05-20T16:17:21.841Z,4.63
2023-05-20T16:19:49.165Z,3.10
2023-05-20T16:22:16.461Z,3.67
2023-05-20T16:24:43.341Z,2.80
2023-05-20T16:27:11.109Z,2.80
2023-05-20T16:29:43.382Z,2.70
2023-05-20T16:32:10.658Z,2.73
2023-05-20T16:34:37.913Z,3.00
2023-05-20T16:37:06.417Z,2.73
2023-05-20T16:39:39.054Z,3.27
2023-05-20T16:42:09.296Z,2.70
2023-05-20T16:44:39.130Z,3.57
2023-05-20T16:47:16.516Z,3.60
2023-05-20T16:49:43.648Z,3.90
2023-05-20T16:52:10.772Z,3.70
2023-05-20T16:54:39.394Z,3.67
2023-05-20T16:57:07.476Z,4.10
2023-05-20T16:59:43.119Z,3.50
2023-05-20T17:02:14.906Z,3.20
2023-05-20T17:04:44.054Z,3.93
2023-05-20T17:07:11.454Z,3.73
2023-05-20T17:09:39.343Z,3.57
2023-05-20T17:12:06.702Z,4.00
2023-05-20T17:14:33.852Z,4.30
2023-05-20T17:17:02.536Z,3.90
2023-05-20T17:19:30.904Z,4.20
2023-05-20T17:21:57.792Z,3.27
2023-05-20T17:24:24.718Z,4.10
2023-05-20T17:26:51.561Z,7.00
2023-05-20T17:29:18.883Z,4.33
2023-05-20T17:31:45.914Z,4.20
2023-05-20T17:34:14.213Z,3.40
2023-05-20T17:36:41.592Z,3.90
2023-05-20T17:39:18.268Z,4.50
2023-05-20T17:41:49.063Z,3.50
2023-05-20T17:44:16.337Z,3.40
2023-05-20T17:46:43.297Z,3.07
2023-05-20T17:49:10.298Z,2.73
2023-05-20T17:51:42.544Z,4.83
2023-05-20T17:54:09.726Z,3.07
2023-05-20T17:56:36.902Z,3.23
2023-05-20T17:59:03.828Z,2.87
2023-05-20T18:01:33.227Z,4.33
2023-05-20T18:04:04.558Z,4.20
2023-05-20T18:06:37.127Z,3.73
2023-05-20T18:09:06.753Z,3.60
2023-05-20T18:11:33.797Z,3.30
2023-05-20T18:14:01.654Z,2.90
2023-05-20T18:16:32.474Z,2.60
2023-05-20T18:18:59.637Z,3.00
2023-05-20T18:21:28.051Z,3.60
2023-05-20T18:23:54.966Z,3.20
2023-05-20T18:26:21.795Z,2.90
2023-05-20T18:28:53.340Z,2.53
2023-05-20T18:31:20.631Z,2.40
2023-05-20T18:33:52.395Z,2.07
2023-05-20T18:36:22.181Z,2.67
2023-05-20T18:38:52.371Z,2.30
2023-05-20T18:41:19.685Z,2.47
2023-05-20T18:43:46.654Z,2.37
2023-05-20T18:46:19.065Z,2.70
2023-05-20T18:48:47.167Z,3.30
2023-05-20T18:51:16.006Z,3.50
2023-05-20T18:53:42.997Z,2.77
2023-05-20T18:56:11.725Z,2.83
2023-05-20T18:58:38.715Z,2.03
2023-05-20T19:01:05.869Z,2.87
2023-05-20T19:03:33.309Z,2.63
2023-05-20T19:06:00.317Z,3.70
2023-05-20T19:08:27.494Z,4.13
2023-05-20T19:10:54.895Z,3.47
2023-05-20T19:13:23.519Z,3.53
2023-05-20T19:15:51.655Z,3.90
2023-05-20T19:18:20.630Z,3.67
2023-05-20T19:20:53.055Z,3.63
2023-05-20T19:23:20.163Z,4.67
2023-05-20T19:25:47.133Z,4.73
2023-05-20T19:28:14.976Z,4.17
2023-05-20T19:30:41.930Z,3.80
2023-05-20T19:33:09.925Z,4.03
2023-05-20T19:35:39.790Z,4.63
2023-05-20T19:38:07.516Z,4.10
2023-05-20T19:40:35.610Z,4.40
2023-05-20T19:43:02.995Z,4.60
2023-05-20T19:45:29.960Z,4.67
2023-05-20T19:47:58.708Z,4.43
2023-05-20T19:50:26.490Z,4.43
2023-05-20T19:52:54.496Z,4.33
2023-05-20T19:55:21.442Z,4.10
2023-05-20T19:57:56.344Z,4.30
2023-05-20T20:00:24.415Z,4.60
2023-05-20T20:02:52.291Z,3.63
2023-05-20T20:05:31.748Z,3.53
2023-05-20T20:07:58.702Z,3.80
2023-05-20T20:10:25.975Z,3.70
2023-05-20T20:12:53.176Z,4.20
2023-05-20T20:15:20.784Z,5.00
2023-05-20T20:17:52.434Z,4.57
2023-05-20T20:20:21.222Z,5.20
2023-05-20T20:22:51.177Z,3.67
2023-05-20T20:25:18.629Z,5.03
2023-05-20T20:27:45.540Z,4.57
2023-05-20T20:30:13.433Z,3.80
2023-05-20T20:32:42.543Z,5.00
2023-05-20T20:35:09.924Z,4.20
2023-05-20T20:37:38.572Z,4.37
2023-05-20T20:40:13.756Z,4.53
2023-05-20T20:42:41.921Z,5.00
2023-05-20T20:45:09.247Z,4.80
2023-05-20T20:47:38.690Z,4.40
2023-05-20T20:50:08.071Z,5.13
2023-05-20T20:52:34.931Z,4.73
2023-05-20T20:55:01.884Z,5.10
2023-05-20T20:57:29.572Z,4.17
2023-05-20T21:00:00.407Z,4.60
2023-05-20T21:02:27.353Z,5.73
2023-05-20T21:04:54.219Z,5.97
2023-05-20T21:07:22.146Z,5.57
2023-05-20T21:09:56.173Z,5.13
2023-05-20T21:12:24.415Z,5.70
2023-05-20T21:14:52.758Z,5.77
2023-05-20T21:17:20.315Z,5.20
2023-05-20T21:19:48.194Z,8.00
2023-05-20T21:22:16.299Z,5.27
2023-05-20T21:24:45.372Z,5.13
2023-05-20T21:27:12.665Z,4.33
2023-05-20T21:29:40.527Z,5.90
2023-05-20T21:32:08.328Z,6.10
2023-05-20T21:34:36.411Z,7.60
2023-05-20T21:37:03.291Z,6.00
2023-05-20T21:39:30.525Z,7.30
2023-05-20T21:41:57.449Z,6.03
2023-05-20T21:44:24.466Z,12.30
2023-05-20T21:46:51.520Z,13.13
2023-05-20T21:49:18.418Z,11.00
2023-05-20T21:51:46.317Z,18.67
2023-05-20T21:54:13.183Z,29.40
2023-05-20T21:56:40.580Z,35.33
2023-05-20T21:59:07.549Z,21.97
2023-05-20T22:01:34.691Z,14.33
2023-05-20T22:04:04.259Z,10.60
2023-05-20T22:06:36.283Z,12.90
2023-05-20T22:09:03.878Z,10.43
2023-05-20T22:11:31.389Z,8.87
2023-05-20T22:13:59.865Z,6.90
2023-05-20T22:16:28.993Z,6.77
2023-05-20T22:18:57.079Z,7.27
2023-05-20T22:21:24.613Z,8.07
2023-05-20T22:23:51.426Z,8.63
2023-05-20T22:26:19.973Z,7.37
2023-05-20T22:28:48.454Z,7.63
2023-05-20T22:31:15.474Z,5.70
2023-05-20T22:33:42.519Z,5.60
2023-05-20T22:36:11.079Z,6.90
2023-05-20T22:38:38.030Z,7.20
2023-05-20T22:41:05.003Z,5.20
2023-05-20T22:43:32.005Z,6.30
2023-05-20T22:45:58.969Z,6.27
2023-05-20T22:48:26.005Z,5.93
2023-05-20T22:50:54.304Z,5.77
2023-05-20T22:53:22.681Z,5.47
2023-05-20T22:55:50.021Z,5.10
2023-05-20T22:58:16.930Z,5.90
2023-05-20T23:00:44.548Z,5.27
2023-05-20T23:03:12.347Z,5.50
2023-05-20T23:05:39.323Z,5.93
2023-05-20T23:08:06.676Z,6.33
2023-05-20T23:10:33.940Z,6.10
2023-05-20T23:13:02.240Z,5.23
2023-05-20T23:15:31.058Z,6.13
2023-05-20T23:17:59.484Z,5.60
2023-05-20T23:20:29.380Z,6.27
2023-05-20T23:22:56.322Z,6.40
2023-05-20T23:25:25.430Z,5.37
2023-05-20T23:27:52.731Z,5.73
2023-05-20T23:30:20.655Z,5.87
2023-05-20T23:32:47.637Z,6.40
2023-05-20T23:35:16.242Z,6.40
2023-05-20T23:37:43.135Z,5.47
2023-05-20T23:40:10.214Z,5.10
2023-05-20T23:42:37.499Z,6.73
2023-05-20T23:45:05.413Z,5.90
2023-05-20T23:47:34.397Z,6.17
2023-05-20T23:50:01.409Z,4.90
2023-05-20T23:52:28.406Z,6.00
2023-05-20T23:54:56.422Z,6.03
2023-05-20T23:57:26.281Z,5.30
2023-05-20T23:59:53.147Z,5.43
